Time;durP1;ratioP1;P1;durP2;ratioP2;P2;SDS_P1;SDS_P2;PMS_P1;PMS_P2;Temp;Humidity;BMP_temperature;BMP_pressure;BME280_temperature;BME280_humidity;BME280_pressure;Samples;Min_cycle;Max_cycle;Signal;HPM_P1;HPM_P2
2023/01/23 00:02:08;;;;;;;66.05;25.65;;;;;;;0.43;100.00;103458.38;5248725;28;20020;-75
2023/01/23 00:04:38;;;;;;;67.35;25.55;;;;;;;0.44;100.00;103460.09;5253986;28;20029;-75
2023/01/23 00:07:09;;;;;;;72.78;27.20;;;;;;;0.48;100.00;103460.00;5245264;28;20647;-75
2023/01/23 00:09:39;;;;;;;76.55;27.08;;;;;;;0.45;100.00;103462.72;5245523;28;20116;-75
2023/01/23 00:12:10;;;;;;;71.25;26.38;;;;;;;0.45;100.00;103461.81;5245083;28;20048;-75
2023/01/23 00:14:40;;;;;;;71.97;26.33;;;;;;;0.45;100.00;103460.09;5247533;28;20389;-75
2023/01/23 00:17:11;;;;;;;75.40;27.15;;;;;;;0.43;100.00;103453.94;5245645;28;20030;-75
2023/01/23 00:19:41;;;;;;;79.82;27.02;;;;;;;0.45;100.00;103448.63;5245176;28;20027;-75
2023/01/23 00:22:14;;;;;;;80.72;27.63;;;;;;;0.47;100.00;103454.75;5245503;28;20029;-75
2023/01/23 00:24:44;;;;;;;80.13;26.90;;;;;;;0.46;100.00;103450.38;5244823;28;20099;-75
2023/01/23 00:27:15;;;;;;;82.13;29.00;;;;;;;0.48;100.00;103452.06;5245051;28;20218;-75
2023/01/23 00:29:46;;;;;;;71.57;25.50;;;;;;;0.49;100.00;103452.94;5247738;28;20016;-75
2023/01/23 00:32:16;;;;;;;80.88;27.90;;;;;;;0.49;100.00;103458.22;5253719;28;20373;-75
2023/01/23 00:34:47;;;;;;;78.53;27.15;;;;;;;0.48;100.00;103456.47;5243653;28;20029;-75
2023/01/23 00:37:18;;;;;;;83.15;27.67;;;;;;;0.47;100.00;103463.53;5244944;28;20024;-75
2023/01/23 00:39:49;;;;;;;81.35;28.70;;;;;;;0.47;100.00;103458.25;5244917;28;20077;-75
2023/01/23 00:42:20;;;;;;;89.80;27.65;;;;;;;0.49;100.00;103459.06;5245054;28;20028;-75
2023/01/23 00:44:50;;;;;;;89.43;31.70;;;;;;;0.51;100.00;103461.69;5258530;28;20074;-75
2023/01/23 00:47:21;;;;;;;86.72;28.88;;;;;;;0.54;100.00;103461.59;5244465;28;20036;-75
2023/01/23 00:49:52;;;;;;;87.82;28.30;;;;;;;0.55;100.00;103457.19;5244446;28;20028;-74
2023/01/23 00:52:26;;;;;;;82.95;29.92;;;;;;;0.54;100.00;103464.25;5243777;28;20051;-75
2023/01/23 00:54:57;;;;;;;85.50;28.40;;;;;;;0.56;100.00;103453.66;5243622;28;20040;-75
2023/01/23 00:57:27;;;;;;;86.07;29.88;;;;;;;0.58;100.00;103452.72;5257868;28;20477;-75
2023/01/23 00:59:58;;;;;;;95.97;29.05;;;;;;;0.57;100.00;103463.31;5257197;28;20020;-75
2023/01/23 01:02:28;;;;;;;97.30;30.10;;;;;;;0.50;100.00;103455.56;5251871;28;20027;-75
2023/01/23 01:04:59;;;;;;;97.38;29.88;;;;;;;0.52;100.00;103451.09;5252119;28;20067;-75
2023/01/23 01:07:29;;;;;;;83.40;28.60;;;;;;;0.51;100.00;103456.41;5244283;28;20052;-75
2023/01/23 01:10:00;;;;;;;92.57;29.73;;;;;;;0.52;100.00;103458.16;5244167;28;20242;-75
2023/01/23 01:12:30;;;;;;;91.57;30.13;;;;;;;0.49;100.00;103456.44;5243227;28;20032;-75
2023/01/23 01:15:01;;;;;;;87.47;31.58;;;;;;;0.56;100.00;103457.19;5254690;28;20024;-75
2023/01/23 01:17:32;;;;;;;97.53;30.13;;;;;;;0.50;100.00;103460.84;5256739;28;20036;-75
2023/01/23 01:20:04;;;;;;;99.20;32.17;;;;;;;0.50;100.00;103457.31;5244289;28;20021;-75
2023/01/23 01:22:34;;;;;;;96.15;30.48;;;;;;;0.47;100.00;103460.03;5243212;28;20366;-75
2023/01/23 01:25:05;;;;;;;95.90;31.40;;;;;;;0.47;100.00;103458.25;5244102;28;20062;-75
2023/01/23 01:27:36;;;;;;;99.97;31.35;;;;;;;0.46;100.00;103464.44;5244391;28;20389;-75
2023/01/23 01:30:07;;;;;;;103.95;33.55;;;;;;;0.49;100.00;103458.22;5244269;28;20030;-75
2023/01/23 01:32:39;;;;;;;105.07;32.75;;;;;;;0.49;100.00;103453.78;5256953;28;20031;-75
2023/01/23 01:35:10;;;;;;;107.40;33.35;;;;;;;0.49;100.00;103461.72;5244597;28;20099;-75
2023/01/23 01:37:41;;;;;;;108.93;31.77;;;;;;;0.48;100.00;103457.34;5257854;28;20434;-75
2023/01/23 01:40:18;;;;;;;121.43;34.65;;;;;;;0.48;100.00;103454.69;5255907;28;20016;-75
2023/01/23 01:42:56;;;;;;;113.75;34.58;;;;;;;0.48;100.00;103451.19;5244080;28;20043;-75
2023/01/23 01:46:04;;;;;;;112.45;32.80;;;;;;;0.48;100.00;103452.06;5244782;28;20017;-75
2023/01/23 01:48:53;;;;;;;102.25;32.15;;;;;;;0.50;100.00;103452.00;5243962;28;20033;-75
2023/01/23 01:51:32;;;;;;;105.38;33.50;;;;;;;0.53;100.00;103454.59;5244085;28;20028;-75
2023/01/23 01:54:47;;;;;;;116.95;34.22;;;;;;;0.53;100.00;103454.59;5246004;28;20553;-75
2023/01/23 01:57:25;;;;;;;111.97;34.35;;;;;;;0.51;100.00;103454.63;5235377;28;20111;-75
2023/01/23 02:00:09;;;;;;;105.28;33.17;;;;;;;0.51;100.00;103462.56;5262903;28;20396;-75
2023/01/23 02:03:00;;;;;;;130.82;37.97;;;;;;;0.51;100.00;103454.63;5253004;28;20085;-75
2023/01/23 02:05:35;;;;;;;113.50;34.83;;;;;;;0.51;100.00;103464.34;5261074;28;20511;-75
2023/01/23 02:08:27;;;;;;;105.95;34.13;;;;;;;0.51;100.00;103466.97;5244129;28;20384;-75
2023/01/23 02:11:02;;;;;;;128.95;35.10;;;;;;;0.50;100.00;103457.31;5252700;28;20028;-75
2023/01/23 02:13:55;;;;;;;115.43;34.85;;;;;;;0.51;100.00;103456.41;5230579;28;20020;-75
2023/01/23 02:16:49;;;;;;;110.70;34.78;;;;;;;0.51;100.00;103453.78;5259649;28;20081;-75
2023/01/23 02:19:37;;;;;;;114.10;34.75;;;;;;;0.51;100.00;103453.78;5244025;28;20501;-75
2023/01/23 02:23:04;;;;;;;126.78;36.92;;;;;;;0.52;100.00;103459.00;5253503;28;20122;-75
2023/01/23 02:26:09;;;;;;;114.57;33.58;;;;;;;0.54;100.00;103463.38;5243772;28;20024;-75
2023/01/23 02:28:51;;;;;;;108.70;34.35;;;;;;;0.52;100.00;103464.28;5247708;28;20140;-75
2023/01/23 02:31:22;;;;;;;113.15;34.30;;;;;;;0.52;100.00;103463.44;5247156;28;20103;-75
2023/01/23 02:33:57;;;;;;;123.85;36.50;;;;;;;0.54;100.00;103471.31;5247639;28;20029;-75
2023/01/23 02:36:31;;;;;;;125.10;33.88;;;;;;;0.55;100.00;103468.63;5247048;28;20385;-75
2023/01/23 02:39:15;;;;;;;111.10;32.55;;;;;;;0.55;100.00;103460.69;5261667;28;20484;-75
2023/01/23 02:41:49;;;;;;;110.68;34.50;;;;;;;0.57;100.00;103460.69;5246244;28;20436;-75
2023/01/23 02:44:28;;;;;;;107.50;33.58;;;;;;;0.57;100.00;103460.69;5247626;28;20416;-75
2023/01/23 02:47:01;;;;;;;99.68;33.58;;;;;;;0.57;100.00;103461.53;5247559;28;20036;-75
2023/01/23 02:49:32;;;;;;;106.72;32.75;;;;;;;0.57;100.00;103458.91;5247365;28;20028;-75
2023/01/23 02:52:04;;;;;;;97.43;32.22;;;;;;;0.58;100.00;103452.72;5246179;28;20079;-75
2023/01/23 02:54:35;;;;;;;94.32;31.73;;;;;;;0.57;100.00;103456.25;5247285;28;20035;-75
2023/01/23 02:57:06;;;;;;;103.45;32.05;;;;;;;0.58;100.00;103460.63;5247843;28;20396;-76
2023/01/23 03:02:26;;;;;;;112.50;32.72;;;;;;;0.56;100.00;103451.88;5268154;28;20091;-75
2023/01/23 03:04:57;;;;;;;103.70;32.80;;;;;;;0.57;100.00;103456.25;5253558;28;20469;-75
2023/01/23 03:07:27;;;;;;;102.78;32.47;;;;;;;0.58;100.00;103457.13;5246951;28;20028;-75
2023/01/23 03:09:58;;;;;;;96.75;31.70;;;;;;;0.56;100.00;103457.19;5259071;28;20081;-75
2023/01/23 03:12:28;;;;;;;101.75;31.73;;;;;;;0.57;100.00;103450.97;5247175;28;20107;-76
2023/01/23 03:14:59;;;;;;;92.78;31.35;;;;;;;0.56;100.00;103449.25;5258005;28;20028;-75
2023/01/23 03:17:31;;;;;;;104.82;32.17;;;;;;;0.58;100.00;103450.06;5245368;28;20029;-75
2023/01/23 03:20:03;;;;;;;109.40;32.30;;;;;;;0.59;100.00;103448.28;5264046;28;20076;-75
2023/01/23 03:22:33;;;;;;;109.15;32.20;;;;;;;0.60;100.00;103463.22;5256584;28;20036;-76
2023/01/23 03:25:04;;;;;;;105.72;31.90;;;;;;;0.61;100.00;103459.69;5247007;28;20009;-75
2023/01/23 03:27:36;;;;;;;101.97;30.30;;;;;;;0.60;100.00;103464.09;5246408;28;20033;-75
2023/01/23 03:30:14;;;;;;;95.18;32.72;;;;;;;0.60;100.00;103461.44;5253155;28;20115;-75
2023/01/23 03:32:45;;;;;;;103.75;31.50;;;;;;;0.60;100.00;103453.53;5250712;28;20033;-75
2023/01/23 03:35:17;;;;;;;96.35;30.17;;;;;;;0.61;100.00;103457.94;5245437;28;20020;-75
2023/01/23 03:37:48;;;;;;;107.80;31.67;;;;;;;0.61;100.00;103463.22;5248886;28;20055;-75
2023/01/23 03:43:11;;;;;;;103.25;31.95;;;;;;;0.63;100.00;103465.81;5246618;28;20522;-75
2023/01/23 03:45:41;;;;;;;102.53;30.45;;;;;;;0.64;100.00;103472.81;5246356;28;20104;-76
2023/01/23 03:48:12;;;;;;;106.85;31.20;;;;;;;0.61;100.00;103460.56;5245956;28;20103;-75
2023/01/23 03:50:42;;;;;;;96.15;30.35;;;;;;;0.64;100.00;103462.25;5245931;28;20032;-76
2023/01/23 03:53:13;;;;;;;106.00;31.30;;;;;;;0.65;100.00;103466.63;5254875;28;20031;-75
2023/01/23 03:55:46;;;;;;;97.82;30.05;;;;;;;0.66;100.00;103463.09;5263116;28;20025;-76
2023/01/23 03:58:17;;;;;;;102.60;28.75;;;;;;;0.66;100.00;103461.31;5255111;28;20115;-75
2023/01/23 04:00:47;;;;;;;113.63;31.52;;;;;;;0.64;100.00;103464.88;5261007;28;20021;-75
2023/01/23 04:03:18;;;;;;;93.75;28.60;;;;;;;0.65;100.00;103459.59;5258808;28;20032;-76
2023/01/23 04:05:48;;;;;;;97.68;29.90;;;;;;;0.65;100.00;103464.88;5244911;28;20028;-76
2023/01/23 04:08:19;;;;;;;106.15;31.77;;;;;;;0.66;100.00;103452.53;5259680;28;20020;-76
2023/01/23 04:10:49;;;;;;;102.57;31.10;;;;;;;0.66;100.00;103458.69;5258700;28;20108;-76
2023/01/23 04:13:20;;;;;;;106.40;30.58;;;;;;;0.67;100.00;103460.41;5257886;28;20031;-75
2023/01/23 04:15:50;;;;;;;97.82;28.77;;;;;;;0.69;100.00;103463.88;5257570;28;20020;-75
2023/01/23 04:18:21;;;;;;;106.35;29.13;;;;;;;0.71;100.00;103471.78;5249241;28;20495;-75
2023/01/23 04:20:52;;;;;;;94.00;29.67;;;;;;;0.72;100.00;103470.88;5256858;28;20112;-76
2023/01/23 04:23:23;;;;;;;109.32;29.80;;;;;;;0.72;100.00;103468.22;5248205;28;20427;-75
2023/01/23 04:25:53;;;;;;;99.53;30.92;;;;;;;0.72;100.00;103470.88;5245581;28;20030;-75
2023/01/23 04:28:25;;;;;;;98.00;31.45;;;;;;;0.72;100.00;103479.66;5244762;28;20481;-75
2023/01/23 04:30:55;;;;;;;100.60;30.38;;;;;;;0.71;100.00;103475.28;5245574;28;20059;-75
2023/01/23 04:33:26;;;;;;;103.38;32.45;;;;;;;0.71;100.00;103475.28;5266437;28;20446;-75
2023/01/23 04:35:59;;;;;;;89.88;29.42;;;;;;;0.71;100.00;103474.41;5251440;28;20096;-75
2023/01/23 04:38:31;;;;;;;103.78;33.08;;;;;;;0.72;100.00;103465.56;5245026;28;20081;-75
2023/01/23 04:41:02;;;;;;;90.13;29.10;;;;;;;0.72;100.00;103471.72;5244940;28;20427;-75
2023/01/23 04:43:34;;;;;;;91.32;28.95;;;;;;;0.72;100.00;103473.50;5244091;28;20031;-75
2023/01/23 04:46:05;;;;;;;99.30;30.92;;;;;;;0.73;100.00;103481.38;5243966;28;20046;-75
2023/01/23 04:48:35;;;;;;;97.43;30.00;;;;;;;0.73;100.00;103484.03;5244805;28;20020;-75
2023/01/23 04:51:06;;;;;;;94.25;29.38;;;;;;;0.76;100.00;103483.97;5251023;28;20099;-75
2023/01/23 04:53:37;;;;;;;93.40;29.80;;;;;;;0.76;100.00;103478.69;5251269;28;20127;-75
2023/01/23 04:56:07;;;;;;;101.38;29.80;;;;;;;0.75;100.00;103481.34;5245068;28;20412;-75
2023/01/23 04:58:37;;;;;;;91.40;28.67;;;;;;;0.76;100.00;103486.59;5245454;28;20028;-75
2023/01/23 05:01:12;;;;;;;94.50;30.75;;;;;;;0.75;100.00;103486.63;5254157;28;20059;-75
2023/01/23 05:03:42;;;;;;;100.90;31.00;;;;;;;0.75;100.00;103486.63;5248261;28;20534;-76
2023/01/23 05:06:13;;;;;;;113.78;32.95;;;;;;;0.74;100.00;103485.75;5244842;28;20282;-75
2023/01/23 05:08:44;;;;;;;82.57;28.75;;;;;;;0.74;100.00;103485.75;5244486;28;20013;-75
2023/01/23 05:11:14;;;;;;;110.90;30.58;;;;;;;0.76;100.00;103491.91;5244901;28;20025;-75
2023/01/23 05:13:44;;;;;;;103.05;32.08;;;;;;;0.77;100.00;103490.97;5244772;28;20111;-75
2023/01/23 05:16:15;;;;;;;98.75;30.25;;;;;;;0.77;100.00;103498.91;5247729;28;20024;-75
2023/01/23 05:18:45;;;;;;;94.10;30.73;;;;;;;0.76;100.00;103502.47;5264675;28;20484;-75
2023/01/23 05:21:16;;;;;;;99.40;31.13;;;;;;;0.77;100.00;103504.19;5251171;28;20107;-75
2023/01/23 05:23:46;;;;;;;102.30;29.77;;;;;;;0.79;100.00;103504.16;5244887;28;20023;-76
2023/01/23 05:26:17;;;;;;;112.00;32.08;;;;;;;0.80;100.00;103511.16;5244602;28;20131;-75
2023/01/23 05:28:47;;;;;;;109.50;31.88;;;;;;;0.81;100.00;103506.78;5251543;28;20456;-76
2023/01/23 05:31:18;;;;;;;108.90;32.40;;;;;;;0.80;100.00;103518.22;5251732;28;20532;-75
2023/01/23 05:33:48;;;;;;;103.28;31.75;;;;;;;0.81;100.00;103515.56;5265699;28;20059;-76
2023/01/23 05:36:19;;;;;;;107.40;29.98;;;;;;;0.82;100.00;103521.72;5261856;28;20108;-75
2023/01/23 05:38:49;;;;;;;99.80;30.83;;;;;;;0.83;100.00;103520.81;5244522;28;20020;-75
2023/01/23 05:41:20;;;;;;;96.70;29.20;;;;;;;0.82;100.00;103522.59;5244069;28;20024;-76
2023/01/23 05:43:50;;;;;;;108.15;33.55;;;;;;;0.82;100.00;103519.06;5256601;28;20035;-75
2023/01/23 05:46:21;;;;;;;101.25;31.20;;;;;;;0.83;100.00;103518.16;5245815;28;20047;-75
2023/01/23 05:48:52;;;;;;;108.18;33.00;;;;;;;0.83;100.00;103524.31;5257936;28;20024;-76
2023/01/23 05:51:30;;;;;;;102.90;33.03;;;;;;;0.84;100.00;103525.16;5244526;28;20017;-76
2023/01/23 05:54:01;;;;;;;103.75;31.70;;;;;;;0.85;100.00;103524.25;5243031;28;20029;-75
2023/01/23 05:56:32;;;;;;;93.22;28.50;;;;;;;0.86;100.00;103526.03;5244227;28;20099;-76
2023/01/23 05:59:04;;;;;;;99.70;30.20;;;;;;;0.86;100.00;103526.03;5249895;28;20102;-75
2023/01/23 06:01:34;;;;;;;98.65;29.88;;;;;;;0.86;100.00;103521.59;5253248;28;20519;-76
2023/01/23 06:04:05;;;;;;;102.80;30.70;;;;;;;0.86;100.00;103523.38;5247280;28;20115;-75
2023/01/23 06:06:35;;;;;;;103.63;30.77;;;;;;;0.85;100.00;103525.13;5248112;28;20023;-75
2023/01/23 06:09:05;;;;;;;94.53;29.42;;;;;;;0.86;100.00;103532.19;5248572;28;20021;-75
2023/01/23 06:11:36;;;;;;;117.78;31.67;;;;;;;0.86;100.00;103526.88;5248132;28;20021;-75
2023/01/23 06:14:07;;;;;;;92.28;28.40;;;;;;;0.86;100.00;103521.59;5248436;28;20059;-76
2023/01/23 06:16:37;;;;;;;92.68;31.65;;;;;;;0.87;100.00;103519.81;5265935;28;20016;-75
2023/01/23 06:19:09;;;;;;;101.50;30.92;;;;;;;0.87;100.00;103512.75;5259484;28;20024;-75
2023/01/23 06:21:39;;;;;;;116.00;32.95;;;;;;;0.87;100.00;103512.75;5248043;28;20028;-75
2023/01/23 06:24:09;;;;;;;106.53;28.48;;;;;;;0.88;100.00;103516.25;5246880;28;20107;-76
2023/01/23 06:26:40;;;;;;;100.88;29.92;;;;;;;0.87;100.00;103523.34;5247742;28;20059;-76
2023/01/23 06:29:10;;;;;;;101.70;31.17;;;;;;;0.87;100.00;103531.25;5246827;28;20077;-76
2023/01/23 06:31:41;;;;;;;102.63;29.23;;;;;;;0.87;100.00;103536.56;5247471;28;20518;-75
2023/01/23 06:34:11;;;;;;;116.85;32.80;;;;;;;0.88;100.00;103537.41;5261540;28;20035;-75
2023/01/23 06:36:42;;;;;;;103.85;30.00;;;;;;;0.88;100.00;103534.78;5247692;28;20536;-75
2023/01/23 06:39:14;;;;;;;102.35;33.03;;;;;;;0.88;100.00;103534.78;5247708;28;20128;-76
2023/01/23 06:41:44;;;;;;;97.53;32.15;;;;;;;0.86;100.00;103531.31;5246231;28;20060;-75
2023/01/23 06:44:14;;;;;;;93.55;28.23;;;;;;;0.88;100.00;103537.41;5247531;28;20445;-75
2023/01/23 06:46:45;;;;;;;93.95;31.15;;;;;;;0.88;100.00;103534.78;5247382;28;20024;-75
2023/01/23 06:49:15;;;;;;;94.05;28.65;;;;;;;0.89;100.00;103539.13;5247788;28;20035;-76
2023/01/23 06:51:46;;;;;;;99.63;31.23;;;;;;;0.90;100.00;103543.50;5247486;28;20025;-76
2023/01/23 06:54:16;;;;;;;87.85;28.40;;;;;;;0.89;100.00;103537.38;5245800;28;20540;-75
2023/01/23 06:56:48;;;;;;;99.25;29.55;;;;;;;0.91;100.00;103545.28;5260219;28;20494;-76
2023/01/23 06:59:18;;;;;;;100.43;28.95;;;;;;;0.90;100.00;103543.50;5260796;28;20069;-76
2023/01/23 07:01:49;;;;;;;93.50;28.45;;;;;;;0.90;100.00;103552.31;5247489;28;20016;-75
2023/01/23 07:04:19;;;;;;;97.57;29.65;;;;;;;0.92;100.00;103550.53;5259232;28;20480;-75
2023/01/23 07:06:50;;;;;;;93.00;28.60;;;;;;;0.93;100.00;103559.31;5246779;28;20020;-76
2023/01/23 07:09:20;;;;;;;96.60;30.25;;;;;;;0.93;100.00;103549.59;5246026;28;20024;-75
2023/01/23 07:11:51;;;;;;;91.90;28.38;;;;;;;0.94;100.00;103546.03;5246865;28;20077;-75
2023/01/23 07:14:21;;;;;;;100.03;28.55;;;;;;;0.96;100.00;103553.97;5257022;28;20036;-75
2023/01/23 07:16:53;;;;;;;86.53;28.85;;;;;;;0.95;100.00;103561.00;5247078;28;20024;-76
2023/01/23 07:19:24;;;;;;;91.93;29.83;;;;;;;0.98;100.00;103568.00;5245667;28;20020;-75
2023/01/23 07:21:54;;;;;;;104.65;32.13;;;;;;;0.98;100.00;103562.72;5247193;28;20031;-75
2023/01/23 07:24:27;;;;;;;98.57;29.70;;;;;;;0.97;100.00;103569.78;5247164;28;20016;-75
2023/01/23 07:26:57;;;;;;;90.68;28.70;;;;;;;0.96;100.00;103580.41;5245443;28;20146;-75
2023/01/23 07:29:28;;;;;;;112.25;30.40;;;;;;;0.97;100.00;103582.13;5246982;28;20178;-75
2023/01/23 07:31:59;;;;;;;93.22;29.17;;;;;;;0.98;100.00;103586.50;5246643;28;20032;-75
2023/01/23 07:34:30;;;;;;;96.13;30.73;;;;;;;0.97;100.00;103590.94;5249158;28;20500;-75
2023/01/23 07:37:00;;;;;;;93.28;30.00;;;;;;;0.99;100.00;103588.22;5257401;28;20032;-75
2023/01/23 07:39:31;;;;;;;96.32;29.25;;;;;;;1.00;100.00;103587.31;5246654;28;20036;-75
2023/01/23 07:42:02;;;;;;;98.13;29.75;;;;;;;1.01;100.00;103583.78;5246537;28;20025;-75
2023/01/23 07:44:32;;;;;;;85.88;28.38;;;;;;;1.00;100.00;103587.31;5243025;28;20508;-75
2023/01/23 07:47:03;;;;;;;110.38;30.58;;;;;;;0.96;100.00;103586.56;5244823;28;20529;-76
2023/01/23 07:49:37;;;;;;;101.18;31.38;;;;;;;0.94;100.00;103584.84;5245701;28;20029;-76
2023/01/23 07:52:08;;;;;;;98.28;30.25;;;;;;;0.94;100.00;103596.28;5245642;28;20028;-75
2023/01/23 07:54:38;;;;;;;93.63;30.05;;;;;;;0.94;100.00;103595.41;5243524;28;20477;-75
2023/01/23 07:57:09;;;;;;;103.22;30.27;;;;;;;0.94;100.00;103593.63;5245754;28;20020;-75
2023/01/23 07:59:39;;;;;;;93.63;28.70;;;;;;;0.96;100.00;103596.25;5264808;28;20115;-76
2023/01/23 08:02:10;;;;;;;96.45;30.38;;;;;;;0.96;100.00;103606.84;5248673;28;20012;-75
2023/01/23 08:04:40;;;;;;;94.53;29.23;;;;;;;1.09;100.00;103608.25;5255822;28;20059;-76
2023/01/23 08:07:11;;;;;;;92.63;28.90;;;;;;;1.12;100.00;103607.31;5245670;28;20035;-76
2023/01/23 08:09:41;;;;;;;84.07;28.27;;;;;;;1.14;100.00;103606.38;5244784;28;20017;-76
2023/01/23 08:12:12;;;;;;;98.47;29.33;;;;;;;1.14;100.00;103603.72;5243555;28;20025;-75
2023/01/23 08:14:42;;;;;;;85.68;27.95;;;;;;;1.16;100.00;103599.28;5246876;28;20024;-76
2023/01/23 08:17:13;;;;;;;93.53;29.63;;;;;;;1.15;100.00;103613.38;5257729;28;20024;-75
2023/01/23 08:19:43;;;;;;;82.13;28.55;;;;;;;1.16;100.00;103616.94;5242994;28;20473;-76
2023/01/23 08:22:14;;;;;;;104.93;28.50;;;;;;;1.23;100.00;103608.78;5243872;28;20032;-75
2023/01/23 08:24:46;;;;;;;89.82;29.95;;;;;;;1.26;100.00;103606.06;5242826;28;20028;-76
2023/01/23 08:27:16;;;;;;;90.70;29.25;;;;;;;1.25;100.00;103608.72;5244785;28;20439;-76
2023/01/23 08:29:47;;;;;;;83.90;28.88;;;;;;;1.28;100.00;103613.97;5244343;28;20032;-75
2023/01/23 08:32:17;;;;;;;90.32;29.23;;;;;;;1.28;100.00;103620.13;5243314;28;20702;-75
2023/01/23 08:34:48;;;;;;;94.03;29.30;;;;;;;1.35;100.00;103635.81;5244276;28;20021;-75
2023/01/23 08:37:18;;;;;;;93.35;30.48;;;;;;;1.36;100.00;103624.38;5244177;28;20060;-75
2023/01/23 08:39:48;;;;;;;100.35;31.45;;;;;;;1.34;100.00;103629.66;5244095;28;20054;-75
2023/01/23 08:42:19;;;;;;;83.45;29.02;;;;;;;1.36;100.00;103629.66;5244348;28;20184;-75
2023/01/23 08:44:49;;;;;;;74.38;29.17;;;;;;;1.36;100.00;103627.00;5243588;28;20025;-76
2023/01/23 08:47:20;;;;;;;84.50;28.58;;;;;;;1.41;100.00;103630.41;5243783;28;20017;-75
2023/01/23 08:49:51;;;;;;;98.30;29.17;;;;;;;1.45;100.00;103632.91;5244094;28;20115;-75
2023/01/23 08:52:21;;;;;;;81.82;26.33;;;;;;;1.48;100.00;103635.47;5244025;28;20099;-75
2023/01/23 08:54:53;;;;;;;84.28;28.67;;;;;;;1.54;100.00;103626.50;5244041;28;20024;-75
2023/01/23 08:57:23;;;;;;;81.82;28.02;;;;;;;1.56;100.00;103627.38;5242074;28;20074;-76
2023/01/23 08:59:54;;;;;;;89.30;29.92;;;;;;;1.50;100.00;103628.34;5245531;28;20451;-76
2023/01/23 09:02:24;;;;;;;84.35;28.63;;;;;;;1.53;100.00;103635.38;5244260;28;20025;-76
2023/01/23 09:04:55;;;;;;;86.82;27.67;;;;;;;1.57;100.00;103633.53;5244136;28;20020;-75
2023/01/23 09:07:25;;;;;;;81.00;28.30;;;;;;;1.61;100.00;103629.84;5244045;28;20017;-75
2023/01/23 09:09:56;;;;;;;88.68;28.90;;;;;;;1.67;100.00;103627.94;5243593;28;20040;-75
2023/01/23 09:12:26;;;;;;;73.63;27.02;;;;;;;1.76;100.00;103626.84;5244254;28;20029;-75
2023/01/23 09:14:58;;;;;;;85.32;29.48;;;;;;;1.81;100.00;103635.50;5247729;28;20074;-75
2023/01/23 09:17:28;;;;;;;89.93;29.27;;;;;;;1.89;100.00;103630.00;5254961;28;20097;-75
2023/01/23 09:19:59;;;;;;;87.47;31.55;;;;;;;1.90;100.00;103629.94;5243633;28;20103;-75
2023/01/23 09:22:30;;;;;;;80.07;27.65;;;;;;;1.95;100.00;103633.34;5243715;28;20043;-75
2023/01/23 09:25:01;;;;;;;82.07;27.02;;;;;;;2.01;100.00;103627.03;5243426;28;20028;-76
2023/01/23 09:27:31;;;;;;;100.07;36.97;;;;;;;1.97;100.00;103631.53;5243568;28;20111;-75
2023/01/23 09:30:02;;;;;;;78.70;28.52;;;;;;;2.01;100.00;103634.97;5248466;28;20024;-76
2023/01/23 09:32:32;;;;;;;76.38;27.67;;;;;;;2.01;100.00;103646.44;5249600;28;20089;-75
2023/01/23 09:35:03;;;;;;;76.30;28.65;;;;;;;2.03;100.00;103649.03;5243214;28;20032;-76
2023/01/23 09:40:25;;;;;;;85.03;29.83;;;;;;;1.97;100.00;103651.84;5247968;28;20028;-76
2023/01/23 09:43:01;;;;;;;79.95;27.73;;;;;;;2.00;100.00;103644.66;5247602;28;20044;-75
2023/01/23 09:45:33;;;;;;;79.55;26.42;;;;;;;2.02;100.00;103644.66;5247681;28;20575;-75
2023/01/23 09:48:15;;;;;;;101.45;29.73;;;;;;;2.03;100.00;103651.66;5246436;28;20115;-76
2023/01/23 09:51:03;;;;;;;81.68;28.30;;;;;;;2.08;100.00;103652.41;5247447;28;20031;-75
2023/01/23 09:53:38;;;;;;;74.90;27.83;;;;;;;2.09;100.00;103656.78;5247515;28;20028;-76
2023/01/23 09:56:27;;;;;;;78.35;27.98;;;;;;;2.13;100.00;103661.09;5247477;28;20058;-76
2023/01/23 09:58:57;;;;;;;73.22;26.80;;;;;;;2.14;100.00;103665.47;5260632;28;20032;-76
2023/01/23 10:01:30;;;;;;;83.25;29.52;;;;;;;2.16;100.00;103666.31;5247656;28;20512;-76
2023/01/23 10:04:01;;;;;;;77.43;27.20;;;;;;;2.17;100.00;103660.09;5245775;28;20020;-75
2023/01/23 10:06:50;;;;;;;100.30;33.17;;;;;;;2.18;100.00;103661.84;5246627;28;20619;-76
2023/01/23 10:09:44;;;;;;;68.38;27.92;;;;;;;2.22;100.00;103652.91;5247384;28;20028;-75
2023/01/23 10:12:39;;;;;;;78.63;29.33;;;;;;;2.28;100.00;103655.38;5246967;28;20025;-76
2023/01/23 10:15:32;;;;;;;79.93;29.07;;;;;;;2.38;100.00;103653.31;5252986;28;20032;-76
2023/01/23 10:18:21;;;;;;;80.45;28.20;;;;;;;2.40;100.00;103661.22;5252969;28;20031;-75
2023/01/23 10:21:13;;;;;;;83.88;28.48;;;;;;;2.45;100.00;103656.66;5246744;28;20476;-76
2023/01/23 10:24:19;;;;;;;103.03;28.65;;;;;;;2.47;100.00;103665.44;5247162;28;20112;-76
2023/01/23 10:26:49;;;;;;;75.63;27.52;;;;;;;2.47;100.00;103660.13;5212078;28;20052;-76
2023/01/23 10:29:31;;;;;;;74.20;27.05;;;;;;;2.47;100.00;103658.34;5246972;28;20020;-76
2023/01/23 10:32:04;;;;;;;71.95;27.88;;;;;;;2.47;100.00;103653.06;5246746;28;20592;-76
2023/01/23 10:34:50;;;;;;;84.45;28.42;;;;;;;2.50;100.00;103655.59;5246848;28;20016;-76
2023/01/23 10:37:32;;;;;;;78.82;27.20;;;;;;;2.52;100.00;103655.56;5245198;28;20680;-76
2023/01/23 10:43:18;;;;;;;81.65;28.08;;;;;;;2.55;100.00;103653.69;5246738;28;20033;-75
2023/01/23 10:45:49;;;;;;;83.75;29.25;;;;;;;2.59;100.00;103652.69;5246248;28;20032;-76
2023/01/23 10:48:32;;;;;;;87.55;28.13;;;;;;;2.64;100.00;103651.69;5246020;28;20032;-76
2023/01/23 10:51:03;;;;;;;84.80;28.77;;;;;;;2.70;100.00;103654.13;5246261;28;20028;-76
2023/01/23 10:53:33;;;;;;;77.82;29.10;;;;;;;2.61;100.00;103647.34;5245419;28;20503;-76
2023/01/23 10:56:13;;;;;;;79.10;28.27;;;;;;;2.55;100.00;103645.72;5245500;28;20397;-76
2023/01/23 10:58:44;;;;;;;89.53;29.52;;;;;;;2.60;100.00;103650.88;5259979;28;20027;-75
2023/01/23 11:01:25;;;;;;;87.00;30.27;;;;;;;2.66;100.00;103647.19;5257266;28;20025;-76
2023/01/23 11:03:56;;;;;;;87.40;29.73;;;;;;;2.63;100.00;103648.16;5259588;28;20029;-76
2023/01/23 11:06:27;;;;;;;77.10;27.80;;;;;;;2.57;100.00;103645.69;5244318;28;20070;-76
2023/01/23 11:08:59;;;;;;;82.97;29.38;;;;;;;2.59;100.00;103643.84;5246155;28;20028;-76
2023/01/23 11:11:31;;;;;;;74.18;27.88;;;;;;;2.59;100.00;103651.81;5246063;28;20031;-76
2023/01/23 11:14:12;;;;;;;74.38;28.20;;;;;;;2.59;100.00;103638.56;5245126;28;20610;-75
2023/01/23 11:16:43;;;;;;;81.13;29.33;;;;;;;2.61;100.00;103639.41;5261120;28;20027;-76
2023/01/23 11:19:21;;;;;;;83.65;28.30;;;;;;;2.61;100.00;103634.09;5246215;28;20024;-76
2023/01/23 11:22:01;;;;;;;85.00;31.13;;;;;;;2.68;100.00;103632.13;5245584;28;20024;-76
2023/01/23 11:24:37;;;;;;;83.60;31.58;;;;;;;2.72;100.00;103631.13;5245758;28;20036;-76
2023/01/23 11:27:13;;;;;;;83.03;28.88;;;;;;;2.69;100.00;103629.41;5245577;28;20027;-75
2023/01/23 11:30:15;;;;;;;74.43;28.45;;;;;;;2.68;100.00;103632.97;5245560;28;20071;-76
2023/01/23 11:32:53;;;;;;;78.00;28.15;;;;;;;2.70;100.00;103620.53;5245275;28;20074;-76
2023/01/23 11:35:46;;;;;;;75.75;26.70;;;;;;;2.70;100.00;103631.13;5245348;28;20025;-76
2023/01/23 11:38:22;;;;;;;79.07;28.08;;;;;;;2.74;100.00;103627.47;5245477;28;20060;-76
2023/01/23 11:40:52;;;;;;;76.80;26.77;;;;;;;2.83;100.00;103635.16;5246917;28;20107;-76
2023/01/23 11:43:23;;;;;;;76.72;26.83;;;;;;;2.79;100.00;103638.81;5257780;28;20447;-75
2023/01/23 11:46:05;;;;;;;78.82;26.77;;;;;;;2.79;100.00;103638.81;5243747;28;20115;-76
2023/01/23 11:48:35;;;;;;;74.70;26.65;;;;;;;2.83;100.00;103642.25;5245131;28;20544;-75